createdAt,value
2023-05-18T00:00:16.352Z,100.00
2023-05-18T00:01:19.628Z,100.00
2023-05-18T00:02:21.933Z,100.00
2023-05-18T00:03:24.972Z,100.00
2023-05-18T00:04:29.706Z,100.00
2023-05-18T00:05:34.239Z,100.00
2023-05-18T00:06:39.329Z,100.00
2023-05-18T00:07:41.746Z,100.00
2023-05-18T00:08:44.349Z,100.00
2023-05-18T00:09:47.102Z,100.00
2023-05-18T00:10:49.832Z,100.00
2023-05-18T00:11:55.539Z,100.00
2023-05-18T00:12:58.113Z,100.00
2023-05-18T00:14:00.501Z,100.00
2023-05-18T00:15:04.966Z,100.00
2023-05-18T00:16:07.865Z,100.00
2023-05-18T00:17:10.434Z,100.00
2023-05-18T00:18:12.819Z,100.00
2023-05-18T00:19:15.711Z,100.00
2023-05-18T00:20:22.057Z,100.00
2023-05-18T00:21:30.628Z,100.00
2023-05-18T00:22:33.052Z,100.00
2023-05-18T00:23:35.681Z,100.00
2023-05-18T00:24:37.863Z,100.00
2023-05-18T00:25:40.557Z,100.00
2023-05-18T00:26:51.965Z,100.00
2023-05-18T00:27:54.273Z,100.00
2023-05-18T00:28:56.812Z,100.00
2023-05-18T00:29:59.586Z,100.00
2023-05-18T00:31:02.120Z,100.00
2023-05-18T00:32:05.320Z,100.00
2023-05-18T00:33:07.624Z,100.00
2023-05-18T00:34:13.879Z,100.00
2023-05-18T00:35:16.446Z,100.00
2023-05-18T00:36:19.389Z,100.00
2023-05-18T00:37:21.951Z,100.00
2023-05-18T00:38:24.657Z,100.00
2023-05-18T00:39:26.963Z,100.00
2023-05-18T00:40:29.927Z,100.00
2023-05-18T00:41:33.159Z,100.00
2023-05-18T00:42:35.545Z,100.00
2023-05-18T00:43:41.587Z,100.00
2023-05-18T00:44:46.898Z,100.00
2023-05-18T00:45:49.232Z,100.00
2023-05-18T00:46:51.947Z,100.00
2023-05-18T00:47:54.876Z,100.00
2023-05-18T00:48:57.822Z,100.00
2023-05-18T00:50:00.129Z,100.00
2023-05-18T00:51:03.040Z,100.00
2023-05-18T00:52:06.063Z,100.00
2023-05-18T00:53:10.641Z,100.00
2023-05-18T00:54:13.820Z,100.00
2023-05-18T00:55:16.924Z,100.00
2023-05-18T00:56:20.255Z,100.00
2023-05-18T00:57:24.234Z,100.00
2023-05-18T00:58:26.968Z,100.00
2023-05-18T00:59:30.725Z,100.00
2023-05-18T01:00:34.054Z,100.00
2023-05-18T01:01:37.886Z,100.00
2023-05-18T01:02:45.896Z,100.00
2023-05-18T01:03:48.405Z,100.00
2023-05-18T01:04:52.906Z,100.00
2023-05-18T01:05:57.917Z,100.00
2023-05-18T01:07:06.788Z,100.00
2023-05-18T01:08:10.162Z,100.00
2023-05-18T01:09:14.378Z,100.00
2023-05-18T01:10:19.760Z,100.00
2023-05-18T01:11:40.622Z,100.00
2023-05-18T01:12:51.290Z,100.00
2023-05-18T01:14:06.410Z,100.00
2023-05-18T01:15:35.322Z,100.00
2023-05-18T01:17:06.981Z,100.00
2023-05-18T01:18:15.368Z,100.00
2023-05-18T01:19:54.737Z,100.00
2023-05-18T01:21:43.066Z,100.00
2023-05-18T01:23:10.423Z,100.00
2023-05-18T01:24:38.782Z,100.00
2023-05-18T01:25:55.661Z,100.00
2023-05-18T01:27:00.658Z,100.00
2023-05-18T01:28:08.737Z,100.00
2023-05-18T01:29:13.777Z,100.00
2023-05-18T01:30:19.489Z,100.00
2023-05-18T01:31:23.080Z,100.00
2023-05-18T01:32:25.636Z,100.00
2023-05-18T01:33:27.888Z,100.00
2023-05-18T01:34:30.399Z,100.00
2023-05-18T01:35:36.509Z,100.00
2023-05-18T01:36:38.870Z,100.00
2023-05-18T01:37:41.185Z,100.00
2023-05-18T01:38:45.254Z,100.00
2023-05-18T01:39:49.717Z,100.00
2023-05-18T01:41:13.933Z,100.00
2023-05-18T01:42:21.419Z,100.00
2023-05-18T01:43:29.840Z,100.00
2023-05-18T01:44:45.473Z,100.00
2023-05-18T01:45:51.470Z,100.00
2023-05-18T01:46:59.057Z,100.00
2023-05-18T01:48:05.021Z,100.00
2023-05-18T01:49:17.417Z,100.00
2023-05-18T01:50:26.934Z,100.00
2023-05-18T01:51:36.301Z,100.00
2023-05-18T01:52:45.415Z,100.00
2023-05-18T01:53:59.237Z,100.00
2023-05-18T01:55:03.541Z,100.00
2023-05-18T01:56:08.852Z,100.00
2023-05-18T01:57:12.332Z,100.00
2023-05-18T01:58:17.011Z,100.00
2023-05-18T01:59:19.656Z,100.00
2023-05-18T02:02:11.621Z,100.00
2023-05-18T02:03:14.832Z,100.00
2023-05-18T02:04:17.746Z,100.00
2023-05-18T02:05:20.817Z,100.00
2023-05-18T02:06:23.776Z,100.00
2023-05-18T02:07:26.400Z,100.00
2023-05-18T02:08:29.068Z,100.00
2023-05-18T02:09:31.348Z,100.00
2023-05-18T02:10:33.532Z,100.00
2023-05-18T02:11:35.942Z,100.00
2023-05-18T02:12:38.454Z,100.00
2023-05-18T02:13:40.897Z,100.00
2023-05-18T02:14:43.352Z,100.00
2023-05-18T02:15:45.642Z,100.00
2023-05-18T02:16:52.738Z,100.00
2023-05-18T02:17:58.216Z,100.00
2023-05-18T02:19:00.710Z,100.00
2023-05-18T02:20:06.821Z,100.00
2023-05-18T02:21:10.083Z,100.00
2023-05-18T02:22:12.340Z,100.00
2023-05-18T02:23:15.773Z,100.00
2023-05-18T02:24:18.328Z,100.00
2023-05-18T02:25:21.095Z,100.00
2023-05-18T02:26:23.892Z,100.00
2023-05-18T02:27:28.282Z,100.00
2023-05-18T02:28:30.794Z,100.00
2023-05-18T02:29:33.020Z,100.00
2023-05-18T02:30:35.496Z,100.00
2023-05-18T02:31:38.510Z,100.00
2023-05-18T02:32:42.543Z,100.00
2023-05-18T02:33:44.775Z,100.00
2023-05-18T02:34:47.154Z,100.00
2023-05-18T02:35:49.395Z,100.00
2023-05-18T02:36:51.751Z,100.00
2023-05-18T02:37:55.839Z,100.00
2023-05-18T02:39:00.047Z,100.00
2023-05-18T02:40:02.294Z,100.00
2023-05-18T02:41:05.649Z,100.00
2023-05-18T02:42:07.926Z,100.00
2023-05-18T02:43:10.282Z,100.00
2023-05-18T02:44:12.949Z,100.00
2023-05-18T02:45:15.218Z,100.00
2023-05-18T02:46:20.791Z,100.00
2023-05-18T02:47:23.151Z,100.00
2023-05-18T02:48:26.576Z,100.00
2023-05-18T02:49:28.909Z,100.00
2023-05-18T02:50:31.154Z,100.00
2023-05-18T02:51:33.766Z,100.00
2023-05-18T02:52:36.889Z,100.00
2023-05-18T02:53:40.094Z,100.00
2023-05-18T02:54:46.474Z,100.00
2023-05-18T02:55:57.097Z,100.00
2023-05-18T02:57:05.106Z,100.00
2023-05-18T02:58:31.074Z,100.00
2023-05-18T02:59:43.665Z,100.00
2023-05-18T03:00:48.884Z,100.00
2023-05-18T03:01:51.333Z,100.00
2023-05-18T03:02:57.576Z,100.00
2023-05-18T03:04:00.450Z,100.00
2023-05-18T03:05:03.424Z,100.00
2023-05-18T03:06:06.151Z,100.00
2023-05-18T03:07:10.504Z,100.00
2023-05-18T03:08:14.256Z,100.00
2023-05-18T03:09:16.684Z,100.00
2023-05-18T03:10:23.402Z,100.00
2023-05-18T03:11:28.662Z,100.00
2023-05-18T03:12:30.902Z,100.00
2023-05-18T03:13:33.111Z,100.00
2023-05-18T03:14:35.762Z,100.00
2023-05-18T03:15:39.529Z,100.00
2023-05-18T03:16:41.985Z,100.00
2023-05-18T03:17:49.586Z,100.00
2023-05-18T03:18:51.977Z,100.00
2023-05-18T03:19:54.464Z,100.00
2023-05-18T03:21:02.170Z,100.00
2023-05-18T03:22:05.818Z,100.00
2023-05-18T03:23:08.153Z,100.00
2023-05-18T03:24:14.527Z,100.00
2023-05-18T03:25:17.856Z,100.00
2023-05-18T03:26:20.204Z,100.00
2023-05-18T03:27:26.722Z,100.00
2023-05-18T03:28:29.846Z,100.00
2023-05-18T03:29:34.263Z,100.00
2023-05-18T03:30:38.635Z,100.00
2023-05-18T03:31:41.815Z,100.00
2023-05-18T03:32:48.824Z,100.00
2023-05-18T03:33:52.046Z,100.00
2023-05-18T03:34:55.025Z,100.00
2023-05-18T03:35:59.153Z,100.00
2023-05-18T03:37:02.007Z,100.00
2023-05-18T03:38:05.178Z,100.00
2023-05-18T03:39:08.463Z,100.00
2023-05-18T03:40:15.569Z,100.00
2023-05-18T03:41:19.483Z,100.00
2023-05-18T03:42:21.754Z,100.00
2023-05-18T03:43:29.382Z,100.00
2023-05-18T03:44:31.833Z,100.00
2023-05-18T03:45:34.073Z,100.00
2023-05-18T03:46:36.518Z,100.00
2023-05-18T03:47:39.797Z,100.00
2023-05-18T03:48:42.317Z,100.00
2023-05-18T03:49:44.670Z,100.00
2023-05-18T03:50:47.227Z,100.00
2023-05-18T03:51:49.685Z,100.00
2023-05-18T03:52:52.987Z,100.00
2023-05-18T03:53:55.272Z,100.00
2023-05-18T03:54:57.543Z,100.00
2023-05-18T03:55:59.777Z,100.00
2023-05-18T03:57:02.279Z,100.00
2023-05-18T03:58:05.407Z,100.00
2023-05-18T03:59:08.092Z,100.00
2023-05-18T04:00:13.293Z,100.00
2023-05-18T04:01:23.672Z,100.00
2023-05-18T04:02:26.503Z,100.00
2023-05-18T04:03:30.520Z,100.00
2023-05-18T04:04:33.276Z,100.00
2023-05-18T04:05:35.584Z,100.00
2023-05-18T04:06:40.099Z,100.00
2023-05-18T04:07:46.714Z,100.00
2023-05-18T04:08:49.384Z,100.00
2023-05-18T04:09:54.349Z,100.00
2023-05-18T04:10:56.656Z,100.00
2023-05-18T04:11:58.827Z,100.00
2023-05-18T04:13:01.365Z,100.00
2023-05-18T04:14:03.588Z,100.00
2023-05-18T04:15:06.678Z,100.00
2023-05-18T04:16:13.448Z,100.00
2023-05-18T04:17:17.420Z,100.00
2023-05-18T04:18:19.835Z,100.00
2023-05-18T04:19:22.478Z,100.00
2023-05-18T04:20:28.162Z,100.00
2023-05-18T04:21:35.323Z,100.00
2023-05-18T04:22:43.263Z,100.00
2023-05-18T04:23:47.176Z,100.00
2023-05-18T04:24:50.502Z,100.00
2023-05-18T04:25:52.810Z,100.00
2023-05-18T04:26:56.034Z,100.00
2023-05-18T04:27:58.694Z,100.00
2023-05-18T04:29:01.012Z,100.00
2023-05-18T04:30:03.445Z,100.00
2023-05-18T04:31:06.506Z,100.00
2023-05-18T04:32:10.679Z,100.00
2023-05-18T04:33:16.067Z,100.00
2023-05-18T04:34:20.070Z,100.00
2023-05-18T04:35:22.998Z,100.00
2023-05-18T04:36:26.084Z,100.00
2023-05-18T04:37:28.603Z,100.00
2023-05-18T04:38:32.514Z,100.00
2023-05-18T04:39:35.133Z,100.00
2023-05-18T04:40:43.369Z,100.00
2023-05-18T04:41:48.279Z,100.00
2023-05-18T04:42:50.727Z,100.00
2023-05-18T04:43:56.138Z,100.00
2023-05-18T04:45:00.177Z,100.00
2023-05-18T04:46:03.465Z,100.00
2023-05-18T04:47:08.459Z,100.00
2023-05-18T04:48:11.394Z,100.00
2023-05-18T04:49:14.685Z,100.00
2023-05-18T04:50:18.348Z,100.00
2023-05-18T04:51:21.876Z,100.00
2023-05-18T04:52:24.740Z,100.00
2023-05-18T04:53:27.518Z,100.00
2023-05-18T04:54:32.860Z,100.00
2023-05-18T04:55:35.552Z,100.00
2023-05-18T04:56:47.289Z,99.41
2023-05-18T04:57:50.496Z,96.66
2023-05-18T04:58:52.739Z,100.00
2023-05-18T04:59:55.010Z,100.00
2023-05-18T05:00:58.219Z,100.00
2023-05-18T05:02:00.526Z,100.00
2023-05-18T05:03:02.902Z,100.00
2023-05-18T05:04:06.343Z,100.00
2023-05-18T05:05:08.989Z,100.00
2023-05-18T05:06:11.682Z,100.00
2023-05-18T05:07:13.949Z,99.32
2023-05-18T05:08:20.201Z,100.00
2023-05-18T05:09:22.518Z,97.46
2023-05-18T05:10:24.831Z,93.92
2023-05-18T05:11:27.153Z,88.06
2023-05-18T05:12:29.584Z,85.82
2023-05-18T05:13:31.959Z,84.33
2023-05-18T05:14:34.285Z,85.49
2023-05-18T05:15:37.038Z,80.52
2023-05-18T05:16:39.622Z,81.54
2023-05-18T05:17:42.135Z,85.63
2023-05-18T05:18:47.097Z,86.26
2023-05-18T05:19:49.862Z,89.03
2023-05-18T05:20:52.122Z,89.56
2023-05-18T05:21:54.448Z,85.91
2023-05-18T05:22:56.945Z,77.40
2023-05-18T05:24:06.093Z,81.44
2023-05-18T05:25:08.857Z,83.79
2023-05-18T05:26:11.375Z,83.93
2023-05-18T05:27:13.737Z,89.27
2023-05-18T05:28:16.050Z,87.10
2023-05-18T05:29:19.864Z,81.61
2023-05-18T05:30:22.190Z,76.97
2023-05-18T05:31:24.513Z,84.44
2023-05-18T05:32:27.231Z,76.92
2023-05-18T05:33:30.623Z,79.71
2023-05-18T05:34:32.877Z,77.32
2023-05-18T05:35:36.806Z,78.82
2023-05-18T05:36:39.453Z,74.44
2023-05-18T05:37:42.394Z,70.84
2023-05-18T05:38:45.169Z,71.54
2023-05-18T05:39:47.758Z,74.16
2023-05-18T05:40:52.652Z,71.71
2023-05-18T05:41:56.194Z,77.85
2023-05-18T05:42:58.526Z,82.90
2023-05-18T05:44:00.823Z,79.37
2023-05-18T05:45:03.493Z,77.65
2023-05-18T05:46:08.761Z,75.56
2023-05-18T05:47:11.280Z,73.42
2023-05-18T05:48:13.978Z,77.44
2023-05-18T05:49:16.611Z,71.23
2023-05-18T05:50:19.102Z,65.12
2023-05-18T05:51:23.285Z,66.21
2023-05-18T05:52:28.615Z,66.91
2023-05-18T05:53:30.911Z,68.55
2023-05-18T05:54:33.242Z,60.07
2023-05-18T05:55:41.157Z,65.28
2023-05-18T05:56:47.372Z,65.32
2023-05-18T05:57:51.504Z,76.96
2023-05-18T05:58:53.705Z,77.21
2023-05-18T05:59:56.309Z,74.69
2023-05-18T06:00:58.627Z,71.25
2023-05-18T06:02:00.897Z,71.68
2023-05-18T06:03:03.679Z,70.64
2023-05-18T06:04:18.220Z,74.48
2023-05-18T06:05:21.398Z,79.48
2023-05-18T06:06:24.040Z,81.21
2023-05-18T06:07:26.330Z,80.34
2023-05-18T06:08:28.567Z,74.28
2023-05-18T06:09:32.018Z,65.19
2023-05-18T06:10:34.413Z,61.72
2023-05-18T06:11:36.855Z,61.86
2023-05-18T06:12:39.208Z,64.05
2023-05-18T06:13:41.504Z,58.22
2023-05-18T06:14:43.934Z,59.76
2023-05-18T06:15:46.365Z,54.86
2023-05-18T06:16:48.752Z,56.50
2023-05-18T06:17:51.155Z,56.87
2023-05-18T06:18:53.571Z,61.61
2023-05-18T06:19:56.297Z,63.86
2023-05-18T06:20:58.803Z,65.57
2023-05-18T06:22:01.912Z,68.08
2023-05-18T06:23:08.743Z,70.52
2023-05-18T06:24:28.739Z,73.42
2023-05-18T06:25:50.083Z,72.76
2023-05-18T06:26:59.525Z,69.54
2023-05-18T06:28:24.398Z,69.95
2023-05-18T06:29:34.045Z,74.09
2023-05-18T06:31:14.719Z,71.63
2023-05-18T06:32:37.476Z,70.66
2023-05-18T06:33:40.034Z,73.39
2023-05-18T06:34:45.608Z,71.60
2023-05-18T06:35:48.315Z,76.67
2023-05-18T06:36:50.797Z,79.77
2023-05-18T06:37:53.213Z,78.01
2023-05-18T06:38:55.515Z,77.15
2023-05-18T06:39:58.537Z,80.13
2023-05-18T06:41:00.872Z,79.11
2023-05-18T06:42:03.307Z,76.18
2023-05-18T06:43:08.842Z,79.94
2023-05-18T06:44:21.562Z,79.61
2023-05-18T06:45:39.956Z,73.96
2023-05-18T06:46:50.546Z,65.92
2023-05-18T06:48:01.057Z,66.72
2023-05-18T06:49:05.105Z,68.76
2023-05-18T06:50:07.511Z,68.44
2023-05-18T06:51:09.992Z,69.36
2023-05-18T06:52:13.741Z,72.14
2023-05-18T06:53:17.956Z,70.83
2023-05-18T06:54:20.548Z,67.34
2023-05-18T06:55:23.607Z,65.75
2023-05-18T06:56:26.643Z,65.20
2023-05-18T06:57:30.134Z,69.20
2023-05-18T06:58:33.190Z,74.08
2023-05-18T06:59:39.053Z,75.61
2023-05-18T07:00:42.579Z,75.66
2023-05-18T07:01:46.158Z,73.93
2023-05-18T07:02:50.752Z,77.77
2023-05-18T07:03:53.859Z,74.88
2023-05-18T07:04:56.067Z,76.45
2023-05-18T07:05:58.797Z,75.69
2023-05-18T07:07:01.459Z,79.57
2023-05-18T07:08:05.061Z,80.16
2023-05-18T07:09:08.880Z,81.09
2023-05-18T07:10:11.423Z,80.41
2023-05-18T07:11:13.942Z,82.53
2023-05-18T07:12:16.409Z,92.91
2023-05-18T07:13:19.714Z,98.83
2023-05-18T07:14:22.050Z,100.00
2023-05-18T07:15:25.994Z,100.00
2023-05-18T07:16:28.338Z,100.00
2023-05-18T07:17:31.283Z,100.00
2023-05-18T07:18:34.001Z,100.00
2023-05-18T07:19:36.260Z,100.00
2023-05-18T07:20:38.603Z,100.00
2023-05-18T07:21:41.089Z,100.00
2023-05-18T07:22:43.356Z,100.00
2023-05-18T07:23:45.657Z,100.00
2023-05-18T07:24:47.848Z,100.00
2023-05-18T07:25:50.288Z,100.00
2023-05-18T07:26:52.617Z,100.00
2023-05-18T07:27:55.615Z,100.00
2023-05-18T07:28:57.910Z,100.00
2023-05-18T07:30:00.187Z,100.00
2023-05-18T07:31:02.546Z,100.00
2023-05-18T07:32:05.002Z,100.00
2023-05-18T07:33:07.441Z,100.00
2023-05-18T07:34:09.757Z,100.00
2023-05-18T07:35:12.176Z,100.00
2023-05-18T07:36:14.860Z,100.00
2023-05-18T07:37:17.284Z,100.00
2023-05-18T07:38:19.584Z,100.00
2023-05-18T07:39:28.422Z,100.00
2023-05-18T07:40:30.848Z,100.00
2023-05-18T07:41:33.143Z,100.00
2023-05-18T07:42:35.600Z,100.00
2023-05-18T07:43:37.877Z,100.00
2023-05-18T07:44:40.292Z,100.00
2023-05-18T07:45:42.569Z,100.00
2023-05-18T07:46:44.855Z,100.00
2023-05-18T07:47:47.263Z,100.00
2023-05-18T07:48:49.548Z,100.00
2023-05-18T07:49:51.805Z,100.00
2023-05-18T07:50:54.053Z,100.00
2023-05-18T07:51:57.101Z,100.00
2023-05-18T07:52:59.434Z,100.00
2023-05-18T07:54:01.947Z,100.00
2023-05-18T07:55:04.685Z,100.00
2023-05-18T07:56:08.519Z,100.00
2023-05-18T07:57:10.913Z,100.00
2023-05-18T07:58:13.373Z,100.00
2023-05-18T07:59:16.017Z,100.00
2023-05-18T08:00:19.120Z,100.00
2023-05-18T08:01:22.150Z,100.00
2023-05-18T08:02:24.757Z,100.00
2023-05-18T08:03:27.301Z,100.00
2023-05-18T08:04:29.645Z,100.00
2023-05-18T08:05:32.368Z,100.00
2023-05-18T08:06:34.773Z,100.00
2023-05-18T08:07:37.382Z,100.00
2023-05-18T08:08:39.664Z,100.00
2023-05-18T08:09:42.044Z,100.00
2023-05-18T08:10:44.665Z,100.00
2023-05-18T08:11:46.940Z,100.00
2023-05-18T08:12:49.200Z,100.00
2023-05-18T08:13:51.472Z,100.00
2023-05-18T08:14:53.790Z,100.00
2023-05-18T08:16:10.449Z,100.00
2023-05-18T08:17:14.326Z,100.00
2023-05-18T08:18:16.647Z,100.00
2023-05-18T08:19:19.408Z,100.00
2023-05-18T08:20:21.952Z,100.00
2023-05-18T08:21:24.242Z,100.00
2023-05-18T08:22:26.592Z,100.00
2023-05-18T08:23:28.865Z,100.00
2023-05-18T08:24:31.860Z,100.00
2023-05-18T08:25:34.163Z,100.00
2023-05-18T08:26:36.503Z,100.00
2023-05-18T08:27:38.857Z,100.00
2023-05-18T08:28:41.302Z,100.00
2023-05-18T08:29:43.620Z,100.00
2023-05-18T08:30:45.845Z,100.00
2023-05-18T08:31:49.725Z,100.00
2023-05-18T08:32:52.210Z,100.00
2023-05-18T08:33:54.500Z,100.00
2023-05-18T08:34:56.706Z,100.00
2023-05-18T08:35:59.043Z,100.00
2023-05-18T08:37:01.364Z,100.00
2023-05-18T08:38:05.571Z,100.00
2023-05-18T08:39:08.734Z,100.00
2023-05-18T08:40:12.835Z,100.00
2023-05-18T08:41:26.385Z,100.00
2023-05-18T08:42:38.077Z,100.00
2023-05-18T08:43:57.719Z,100.00
2023-05-18T08:45:15.004Z,100.00
2023-05-18T08:46:21.479Z,100.00
2023-05-18T08:47:26.615Z,100.00
2023-05-18T08:48:32.027Z,100.00
2023-05-18T08:49:35.107Z,100.00
2023-05-18T08:50:38.095Z,100.00
2023-05-18T08:51:41.712Z,100.00
2023-05-18T08:52:48.411Z,100.00
2023-05-18T08:53:54.272Z,100.00
2023-05-18T08:55:00.184Z,100.00
2023-05-18T08:56:03.292Z,100.00
2023-05-18T08:57:11.557Z,100.00
2023-05-18T08:58:17.754Z,100.00
2023-05-18T08:59:23.724Z,100.00
2023-05-18T09:00:26.123Z,100.00
2023-05-18T09:01:29.639Z,100.00
2023-05-18T09:02:33.565Z,100.00
2023-05-18T09:03:37.813Z,100.00
2023-05-18T09:04:40.985Z,97.34
2023-05-18T09:05:43.381Z,99.51
2023-05-18T09:06:48.171Z,99.02
2023-05-18T09:07:51.328Z,99.98
2023-05-18T09:08:54.804Z,99.23
2023-05-18T09:09:58.168Z,93.70
2023-05-18T09:11:02.755Z,95.53
2023-05-18T09:12:06.531Z,97.94
2023-05-18T09:13:09.988Z,97.78
2023-05-18T09:14:12.736Z,98.08
2023-05-18T09:15:17.382Z,98.81
2023-05-18T09:16:19.655Z,100.00
2023-05-18T09:17:23.839Z,100.00
2023-05-18T09:18:28.200Z,100.00
2023-05-18T09:19:30.830Z,100.00
2023-05-18T09:20:33.206Z,99.05
2023-05-18T09:21:35.765Z,100.00
2023-05-18T09:22:41.186Z,100.00
2023-05-18T09:23:44.802Z,100.00
2023-05-18T09:24:48.918Z,100.00
2023-05-18T09:25:52.610Z,96.30
2023-05-18T09:26:54.884Z,95.36
2023-05-18T09:27:57.158Z,95.10
2023-05-18T09:28:59.786Z,94.95
2023-05-18T09:30:02.189Z,90.71
2023-05-18T09:31:07.833Z,91.49
2023-05-18T09:32:10.886Z,88.98
2023-05-18T09:33:17.946Z,89.21
2023-05-18T09:34:21.159Z,88.96
2023-05-18T09:35:24.844Z,87.60
2023-05-18T09:36:29.252Z,89.10
2023-05-18T09:37:32.811Z,84.13
2023-05-18T09:38:39.195Z,84.20
2023-05-18T09:39:42.067Z,86.09
2023-05-18T09:40:45.920Z,84.86
2023-05-18T09:41:56.316Z,84.54
2023-05-18T09:42:58.588Z,81.57
2023-05-18T09:44:05.098Z,82.71
2023-05-18T09:45:18.109Z,83.63
2023-05-18T09:46:21.043Z,82.16
2023-05-18T09:47:23.475Z,82.41
2023-05-18T09:48:26.846Z,84.69
2023-05-18T09:49:29.728Z,88.85
2023-05-18T09:50:31.886Z,86.45
2023-05-18T09:51:37.999Z,83.98
2023-05-18T09:52:44.767Z,84.51
2023-05-18T09:53:57.308Z,84.33
2023-05-18T09:55:04.514Z,87.13
2023-05-18T09:56:11.792Z,85.95
2023-05-18T09:57:14.107Z,83.23
2023-05-18T09:58:16.808Z,79.52
2023-05-18T09:59:19.014Z,78.62
2023-05-18T10:00:23.552Z,80.46
2023-05-18T10:01:27.416Z,80.54
2023-05-18T10:02:31.023Z,81.23
2023-05-18T10:03:40.251Z,79.43
2023-05-18T10:04:43.867Z,77.88
2023-05-18T10:05:46.377Z,74.32
2023-05-18T10:06:50.118Z,64.71
2023-05-18T10:07:52.829Z,69.62
2023-05-18T10:08:58.002Z,63.95
2023-05-18T10:10:03.474Z,63.26
2023-05-18T10:11:06.560Z,65.69
2023-05-18T10:12:17.514Z,63.16
2023-05-18T10:13:20.750Z,68.20
2023-05-18T10:14:31.343Z,71.93
2023-05-18T10:15:35.715Z,66.03
2023-05-18T10:16:38.158Z,70.16
2023-05-18T10:17:43.306Z,66.27
2023-05-18T10:18:46.910Z,68.59
2023-05-18T10:19:51.622Z,70.52
2023-05-18T10:20:57.274Z,71.12
2023-05-18T10:22:06.023Z,68.64
2023-05-18T10:23:11.316Z,65.25
2023-05-18T10:24:18.325Z,64.87
2023-05-18T10:25:25.316Z,64.25
2023-05-18T10:26:30.023Z,63.61
2023-05-18T10:27:36.140Z,66.58
2023-05-18T10:28:42.469Z,73.17
2023-05-18T10:29:46.511Z,76.85
2023-05-18T10:30:48.976Z,85.69
2023-05-18T10:31:53.942Z,83.47
2023-05-18T10:33:00.283Z,82.78
2023-05-18T10:34:03.913Z,77.25
2023-05-18T10:35:08.213Z,73.23
2023-05-18T10:36:12.616Z,74.22
2023-05-18T10:37:16.687Z,72.56
2023-05-18T10:38:27.007Z,73.70
2023-05-18T10:39:31.822Z,77.76
2023-05-18T10:40:36.156Z,74.50
2023-05-18T10:41:41.432Z,72.76
2023-05-18T10:42:46.026Z,75.71
2023-05-18T10:43:49.563Z,74.44
2023-05-18T10:44:53.180Z,70.28
2023-05-18T10:46:02.440Z,66.49
2023-05-18T10:47:11.512Z,67.86
2023-05-18T10:48:15.292Z,61.74
2023-05-18T10:49:19.807Z,62.37
2023-05-18T10:50:26.408Z,60.96
2023-05-18T10:51:31.413Z,61.69
2023-05-18T10:52:41.582Z,54.87
2023-05-18T10:53:47.593Z,54.21
2023-05-18T10:54:50.176Z,52.26
2023-05-18T10:55:54.422Z,56.06
2023-05-18T10:56:57.000Z,59.83
2023-05-18T10:58:05.608Z,62.10
2023-05-18T10:59:08.401Z,62.19
2023-05-18T11:00:13.414Z,57.85
2023-05-18T11:01:16.379Z,60.21
2023-05-18T11:02:20.472Z,58.46
2023-05-18T11:03:25.635Z,59.41
2023-05-18T11:04:30.013Z,59.95
2023-05-18T11:05:32.313Z,62.25
2023-05-18T11:06:35.501Z,64.79
2023-05-18T11:07:38.307Z,62.12
2023-05-18T11:08:50.417Z,65.45
2023-05-18T11:09:52.683Z,66.68
2023-05-18T11:11:07.577Z,65.15
2023-05-18T11:12:14.254Z,67.60
2023-05-18T11:13:16.786Z,68.30
2023-05-18T11:14:29.274Z,66.82
2023-05-18T11:16:05.253Z,61.60
2023-05-18T11:17:26.709Z,55.91
2023-05-18T11:18:49.804Z,59.90
2023-05-18T11:20:04.586Z,61.57
2023-05-18T11:21:30.177Z,64.20
2023-05-18T11:22:51.771Z,64.56
2023-05-18T11:24:24.964Z,66.17
2023-05-18T11:25:27.046Z,59.40
2023-05-18T11:26:29.877Z,59.27
2023-05-18T11:27:32.769Z,57.67
2023-05-18T11:28:43.296Z,57.87
2023-05-18T11:29:46.466Z,59.01
2023-05-18T11:30:50.402Z,61.05
2023-05-18T11:31:54.472Z,57.55
2023-05-18T11:33:17.642Z,56.50
2023-05-18T11:34:49.504Z,57.31
2023-05-18T11:35:57.950Z,54.85
2023-05-18T11:37:00.493Z,58.90
2023-05-18T11:38:08.838Z,56.90
2023-05-18T11:39:11.437Z,56.79
2023-05-18T11:40:47.666Z,54.01
2023-05-18T11:42:02.574Z,52.91
2023-05-18T11:43:04.748Z,52.99
2023-05-18T11:44:13.958Z,55.75
2023-05-18T11:45:17.179Z,59.10
2023-05-18T11:46:21.368Z,61.24
2023-05-18T11:47:33.646Z,56.74
2023-05-18T11:48:44.332Z,54.26
2023-05-18T11:49:47.993Z,54.34
2023-05-18T11:50:54.855Z,51.87
2023-05-18T11:52:21.387Z,50.96
2023-05-18T11:53:25.705Z,55.73
2023-05-18T11:54:28.574Z,56.62
2023-05-18T11:55:41.506Z,56.99
2023-05-18T11:56:44.109Z,52.82
2023-05-18T11:57:54.692Z,54.94
2023-05-18T11:59:13.394Z,53.80
2023-05-18T12:00:17.057Z,53.90
2023-05-18T12:01:19.288Z,52.14
2023-05-18T12:02:24.521Z,54.52
2023-05-18T12:03:27.004Z,53.93
2023-05-18T12:04:30.044Z,52.51
2023-05-18T12:05:34.469Z,52.68
2023-05-18T12:06:38.220Z,54.63
2023-05-18T12:07:41.388Z,54.58
2023-05-18T12:08:44.928Z,55.04
2023-05-18T12:09:48.607Z,52.64
2023-05-18T12:10:50.840Z,50.10
2023-05-18T12:11:53.060Z,50.00
2023-05-18T12:12:57.101Z,48.06
2023-05-18T12:13:59.887Z,50.20
2023-05-18T12:15:07.425Z,52.73
2023-05-18T12:16:11.522Z,56.12
2023-05-18T12:17:14.044Z,55.72
2023-05-18T12:18:18.825Z,51.80
2023-05-18T12:19:22.592Z,53.68
2023-05-18T12:20:25.387Z,51.03
2023-05-18T12:21:27.998Z,49.93
2023-05-18T12:22:30.172Z,49.82
2023-05-18T12:23:37.378Z,49.91
2023-05-18T12:24:40.916Z,50.30
2023-05-18T12:25:43.165Z,51.66
2023-05-18T12:26:46.722Z,52.03
2023-05-18T12:27:50.038Z,49.91
2023-05-18T12:28:53.255Z,51.96
2023-05-18T12:29:55.527Z,52.88
2023-05-18T12:30:58.632Z,51.18
2023-05-18T12:32:06.073Z,53.10
2023-05-18T12:33:08.285Z,50.95
2023-05-18T12:34:11.493Z,50.15
2023-05-18T12:35:13.596Z,49.95
2023-05-18T12:36:15.760Z,51.29
2023-05-18T12:37:17.984Z,51.15
2023-05-18T12:38:21.067Z,50.56
2023-05-18T12:39:27.110Z,50.66
2023-05-18T12:40:48.892Z,50.60
2023-05-18T12:41:51.515Z,52.30
2023-05-18T12:42:54.594Z,50.53
2023-05-18T12:43:58.318Z,51.02
2023-05-18T12:45:00.736Z,51.21
2023-05-18T12:46:04.507Z,48.97
2023-05-18T12:47:06.809Z,50.50
2023-05-18T12:48:11.057Z,49.35
2023-05-18T12:49:13.406Z,51.58
2023-05-18T12:50:15.722Z,50.77
2023-05-18T12:51:21.164Z,51.04
2023-05-18T12:52:23.308Z,51.29
2023-05-18T12:53:25.723Z,49.22
2023-05-18T12:54:29.924Z,48.79
2023-05-18T12:55:33.262Z,49.85
2023-05-18T12:57:02.303Z,47.76
2023-05-18T12:58:07.282Z,49.13
2023-05-18T12:59:09.547Z,48.10
2023-05-18T13:00:12.584Z,48.04
2023-05-18T13:01:14.819Z,47.93
2023-05-18T13:02:32.672Z,48.49
2023-05-18T13:03:35.215Z,47.43
2023-05-18T13:04:37.432Z,46.83
2023-05-18T13:05:41.836Z,46.20
2023-05-18T13:06:44.473Z,46.54
2023-05-18T13:07:46.778Z,46.32
2023-05-18T13:08:49.036Z,46.91
2023-05-18T13:09:51.228Z,46.88
2023-05-18T13:11:01.419Z,47.32
2023-05-18T13:12:12.436Z,46.27
2023-05-18T13:13:17.771Z,46.91
2023-05-18T13:14:22.257Z,47.90
2023-05-18T13:15:24.519Z,47.80
2023-05-18T13:16:27.566Z,47.42
2023-05-18T13:17:29.792Z,48.85
2023-05-18T13:18:32.198Z,47.92
2023-05-18T13:19:37.197Z,48.10
2023-05-18T13:20:50.769Z,47.58
2023-05-18T13:21:56.928Z,49.06
2023-05-18T13:23:03.728Z,48.85
2023-05-18T13:24:06.135Z,48.97
2023-05-18T13:25:08.829Z,47.29
2023-05-18T13:26:11.140Z,48.14
2023-05-18T13:27:13.291Z,47.51
2023-05-18T13:28:17.550Z,46.57
2023-05-18T13:29:19.663Z,47.85
2023-05-18T13:30:22.832Z,47.30
2023-05-18T13:31:25.360Z,49.03
2023-05-18T13:32:27.687Z,49.38
2023-05-18T13:33:29.868Z,46.73
2023-05-18T13:34:32.074Z,45.11
2023-05-18T13:35:38.458Z,45.25
2023-05-18T13:36:41.369Z,46.08
2023-05-18T13:37:43.746Z,45.11
2023-05-18T13:38:46.052Z,46.19
2023-05-18T13:39:48.329Z,45.34
2023-05-18T13:40:50.516Z,46.00
2023-05-18T13:41:52.657Z,46.44
2023-05-18T13:42:54.801Z,44.67
2023-05-18T13:43:56.961Z,45.82
2023-05-18T13:44:59.123Z,47.14